createdAt,value
2023-03-17T00:01:54.491Z,-1.87
2023-03-17T00:07:41.491Z,-1.90
2023-03-17T00:10:25.790Z,-1.90
2023-03-17T00:12:55.322Z,-1.92
2023-03-17T00:15:26.681Z,-1.94
2023-03-17T00:17:56.197Z,-1.95
2023-03-17T00:20:29.042Z,-1.96
2023-03-17T00:23:01.467Z,-1.95
2023-03-17T00:25:33.032Z,-1.96
2023-03-17T00:28:03.751Z,-1.97
2023-03-17T00:30:31.814Z,-1.98
2023-03-17T00:33:00.232Z,-1.99
2023-03-17T00:35:29.675Z,-1.99
2023-03-17T00:37:57.965Z,-2.00
2023-03-17T00:40:32.698Z,-2.01
2023-03-17T00:43:03.244Z,-2.01
2023-03-17T00:45:31.009Z,-2.01
2023-03-17T00:47:59.061Z,-2.02
2023-03-17T00:50:28.784Z,-2.05
2023-03-17T00:52:58.023Z,-2.07
2023-03-17T00:55:26.854Z,-2.09
2023-03-17T00:57:55.190Z,-2.10
2023-03-17T01:00:27.084Z,-2.12
2023-03-17T01:02:56.702Z,-2.15
2023-03-17T01:08:45.946Z,-2.21
2023-03-17T01:11:17.843Z,-2.24
2023-03-17T01:13:47.099Z,-2.26
2023-03-17T01:16:14.795Z,-2.28
2023-03-17T01:18:41.671Z,-2.29
2023-03-17T01:21:08.048Z,-2.31
2023-03-17T01:23:35.014Z,-2.33
2023-03-17T01:26:01.394Z,-2.35
2023-03-17T01:28:28.213Z,-2.38
2023-03-17T01:30:54.824Z,-2.40
2023-03-17T01:33:21.625Z,-2.43
2023-03-17T01:35:50.010Z,-2.44
2023-03-17T01:38:16.994Z,-2.45
2023-03-17T01:40:49.004Z,-2.46
2023-03-17T01:43:17.776Z,-2.47
2023-03-17T01:46:22.288Z,-2.48
2023-03-17T01:49:10.827Z,-2.51
2023-03-17T01:51:49.390Z,-2.53
2023-03-17T01:54:24.977Z,-2.54
2023-03-17T01:56:56.806Z,-2.54
2023-03-17T01:59:28.034Z,-2.55
2023-03-17T02:02:01.709Z,-2.57
2023-03-17T02:04:28.994Z,-2.59
2023-03-17T02:06:58.894Z,-2.61
2023-03-17T02:09:26.861Z,-2.61
2023-03-17T02:11:54.935Z,-2.61
2023-03-17T02:14:21.558Z,-2.62
2023-03-17T02:16:48.692Z,-2.60
2023-03-17T02:19:16.291Z,-2.60
2023-03-17T02:21:48.724Z,-2.59
2023-03-17T02:24:40.883Z,-2.61
2023-03-17T02:27:23.959Z,-2.61
2023-03-17T02:29:53.033Z,-2.65
2023-03-17T02:32:19.752Z,-2.67
2023-03-17T02:34:47.954Z,-2.69
2023-03-17T02:37:15.386Z,-2.70
2023-03-17T02:39:41.963Z,-2.71
2023-03-17T02:42:09.608Z,-2.71
2023-03-17T02:44:36.225Z,-2.70
2023-03-17T02:47:02.740Z,-2.67
2023-03-17T02:49:31.141Z,-2.68
2023-03-17T02:51:57.516Z,-2.71
2023-03-17T02:54:24.001Z,-2.75
2023-03-17T02:56:50.511Z,-2.78
2023-03-17T02:59:16.955Z,-2.79
2023-03-17T03:01:43.517Z,-2.80
2023-03-17T03:07:43.606Z,-2.75
2023-03-17T03:10:11.804Z,-2.77
2023-03-17T03:12:40.252Z,-2.79
2023-03-17T03:15:09.718Z,-2.81
2023-03-17T03:17:37.589Z,-2.82
2023-03-17T03:20:06.191Z,-2.82
2023-03-17T03:22:34.372Z,-2.82
2023-03-17T03:25:02.297Z,-2.82
2023-03-17T03:27:30.247Z,-2.83
2023-03-17T03:29:58.084Z,-2.84
2023-03-17T03:32:26.096Z,-2.84
2023-03-17T03:34:56.945Z,-2.86
2023-03-17T03:37:24.717Z,-2.90
2023-03-17T03:39:53.038Z,-2.92
2023-03-17T03:42:20.851Z,-2.93
2023-03-17T03:44:48.877Z,-2.96
2023-03-17T03:47:16.814Z,-2.99
2023-03-17T03:49:44.639Z,-3.00
2023-03-17T03:52:14.485Z,-3.02
2023-03-17T03:54:42.272Z,-3.04
2023-03-17T03:57:10.320Z,-3.05
2023-03-17T03:59:38.161Z,-3.06
2023-03-17T04:02:09.324Z,-3.07
2023-03-17T04:07:28.918Z,-3.18
2023-03-17T04:09:57.025Z,-3.23
2023-03-17T04:12:24.777Z,-3.27
2023-03-17T04:14:52.582Z,-3.12
2023-03-17T04:17:20.374Z,-2.93
2023-03-17T04:19:48.170Z,-3.01
2023-03-17T04:22:16.431Z,-3.13
2023-03-17T04:24:44.298Z,-3.22
2023-03-17T04:27:12.272Z,-3.14
2023-03-17T04:29:40.164Z,-3.02
2023-03-17T04:32:08.400Z,-3.14
2023-03-17T04:34:36.222Z,-3.22
2023-03-17T04:37:04.568Z,-3.23
2023-03-17T04:39:32.355Z,-3.25
2023-03-17T04:42:00.236Z,-3.25
2023-03-17T04:44:28.324Z,-3.26
2023-03-17T04:46:56.156Z,-3.28
2023-03-17T04:49:24.523Z,-3.29
2023-03-17T04:51:52.285Z,-3.31
2023-03-17T04:54:20.589Z,-3.32
2023-03-17T04:56:48.557Z,-3.35
2023-03-17T04:59:16.398Z,-3.37
2023-03-17T05:01:44.256Z,-3.38
2023-03-17T05:04:16.737Z,-3.38
2023-03-17T05:06:49.844Z,-3.40
2023-03-17T05:09:17.866Z,-3.40
2023-03-17T05:11:45.637Z,-3.38
2023-03-17T05:14:14.581Z,-3.35
2023-03-17T05:16:42.392Z,-3.30
2023-03-17T05:19:10.219Z,-3.21
2023-03-17T05:21:37.988Z,-3.11
2023-03-17T05:24:06.506Z,-3.04
2023-03-17T05:26:34.766Z,-2.97
2023-03-17T05:29:02.603Z,-2.89
2023-03-17T05:31:31.603Z,-2.80
2023-03-17T05:34:00.648Z,-2.70
2023-03-17T05:36:28.582Z,-2.59
2023-03-17T05:38:56.468Z,-2.47
2023-03-17T05:41:24.355Z,-2.35
2023-03-17T05:43:52.476Z,-2.22
2023-03-17T05:46:20.691Z,-2.09
2023-03-17T05:48:48.924Z,-1.95
2023-03-17T05:51:16.749Z,-1.83
2023-03-17T05:53:44.577Z,-1.67
2023-03-17T05:56:13.464Z,-1.50
2023-03-17T05:58:41.707Z,-1.34
2023-03-17T06:01:09.614Z,-1.19
2023-03-17T06:03:38.672Z,-1.02
2023-03-17T06:06:06.917Z,-0.86
2023-03-17T06:08:34.745Z,-0.70
2023-03-17T06:11:02.530Z,-0.55
2023-03-17T06:13:31.100Z,-0.40
2023-03-17T06:15:58.864Z,-0.27
2023-03-17T06:18:27.080Z,-0.14
2023-03-17T06:20:55.274Z,-0.03
2023-03-17T06:23:24.163Z,0.10
2023-03-17T06:25:52.161Z,0.23
2023-03-17T06:28:20.034Z,0.36
2023-03-17T06:30:48.037Z,0.47
2023-03-17T06:33:18.280Z,0.56
2023-03-17T06:35:46.116Z,0.66
2023-03-17T06:38:13.921Z,0.74
2023-03-17T06:40:41.981Z,0.80
2023-03-17T06:43:09.872Z,0.84
2023-03-17T06:45:38.497Z,0.90
2023-03-17T06:48:07.101Z,1.00
2023-03-17T06:50:34.879Z,1.11
2023-03-17T06:53:02.903Z,1.23
2023-03-17T06:55:31.478Z,1.35
2023-03-17T06:58:03.234Z,1.45
2023-03-17T07:00:31.125Z,1.58
2023-03-17T07:02:58.903Z,1.77
2023-03-17T07:05:26.862Z,1.95
2023-03-17T07:07:54.586Z,2.16
2023-03-17T07:10:23.139Z,2.38
2023-03-17T07:12:50.997Z,2.59
2023-03-17T07:15:18.913Z,2.86
2023-03-17T07:17:49.262Z,3.16
2023-03-17T07:20:18.254Z,3.33
2023-03-17T07:22:46.572Z,3.49
2023-03-17T07:25:14.416Z,3.61
2023-03-17T07:27:42.192Z,3.73
2023-03-17T07:30:11.205Z,3.89
2023-03-17T07:32:39.461Z,4.07
2023-03-17T07:35:08.213Z,4.27
2023-03-17T07:37:36.443Z,4.48
2023-03-17T07:40:05.164Z,4.70
2023-03-17T07:42:34.109Z,4.88
2023-03-17T07:45:03.937Z,5.00
2023-03-17T07:47:31.744Z,5.13
2023-03-17T07:49:59.451Z,5.27
2023-03-17T07:52:27.178Z,5.38
2023-03-17T07:54:55.899Z,5.51
2023-03-17T07:57:24.137Z,5.65
2023-03-17T07:59:51.914Z,5.83
2023-03-17T08:02:19.748Z,5.94
2023-03-17T08:04:47.713Z,6.02
2023-03-17T08:07:15.579Z,6.07
2023-03-17T08:09:43.491Z,6.11
2023-03-17T08:12:11.810Z,6.16
2023-03-17T08:14:39.654Z,6.27
2023-03-17T08:17:07.724Z,6.43
2023-03-17T08:19:35.705Z,6.61
2023-03-17T08:22:03.504Z,6.78
2023-03-17T08:24:31.235Z,7.00
2023-03-17T08:27:00.825Z,7.20
2023-03-17T08:29:29.282Z,7.40
2023-03-17T08:31:57.498Z,7.58
2023-03-17T08:34:26.364Z,7.74
2023-03-17T08:36:54.261Z,8.01
2023-03-17T08:39:22.215Z,8.22
2023-03-17T08:41:50.990Z,8.45
2023-03-17T08:44:19.991Z,8.70
2023-03-17T08:46:49.621Z,8.99
2023-03-17T08:49:17.806Z,9.18
2023-03-17T08:51:45.502Z,9.29
2023-03-17T08:54:14.034Z,9.26
2023-03-17T08:56:42.241Z,9.24
2023-03-17T08:59:11.032Z,9.37
2023-03-17T09:01:40.287Z,9.65
2023-03-17T09:04:08.943Z,9.97
2023-03-17T09:06:38.721Z,10.19
2023-03-17T09:09:06.970Z,10.40
2023-03-17T09:11:34.968Z,10.55
2023-03-17T09:14:03.246Z,10.67
2023-03-17T09:16:34.112Z,10.86
2023-03-17T09:19:02.053Z,11.16
2023-03-17T09:21:29.771Z,11.45
2023-03-17T09:23:58.003Z,11.62
2023-03-17T09:26:26.467Z,11.78
2023-03-17T09:28:54.525Z,12.02
2023-03-17T09:31:22.321Z,12.14
2023-03-17T09:33:52.348Z,12.19
2023-03-17T09:36:20.606Z,12.22
2023-03-17T09:38:48.309Z,12.31
2023-03-17T09:41:48.024Z,12.48
2023-03-17T09:44:34.403Z,12.58
2023-03-17T09:47:26.158Z,12.61
2023-03-17T09:49:59.617Z,12.57
2023-03-17T09:52:30.312Z,12.41
2023-03-17T09:54:59.053Z,12.28
2023-03-17T09:57:34.404Z,12.36
2023-03-17T10:00:15.012Z,12.50
2023-03-17T10:02:43.263Z,12.59
2023-03-17T10:05:20.591Z,12.68
2023-03-17T10:07:59.849Z,12.72
2023-03-17T10:10:36.877Z,12.79
2023-03-17T10:13:14.102Z,12.82
2023-03-17T10:15:54.155Z,12.73
2023-03-17T10:18:26.431Z,12.66
2023-03-17T10:20:59.481Z,12.75
2023-03-17T10:23:33.086Z,12.91
2023-03-17T10:26:08.145Z,13.05
2023-03-17T10:28:38.741Z,13.02
2023-03-17T10:31:18.232Z,13.00
2023-03-17T10:33:52.486Z,12.90
2023-03-17T10:36:38.013Z,12.93
2023-03-17T10:39:07.767Z,13.03
2023-03-17T10:41:41.578Z,13.09
2023-03-17T10:44:21.350Z,13.13
2023-03-17T10:46:56.273Z,13.02
2023-03-17T10:49:26.087Z,13.01
2023-03-17T10:51:55.552Z,13.17
2023-03-17T10:54:26.371Z,13.28
2023-03-17T10:57:03.605Z,13.27
2023-03-17T10:59:37.623Z,13.17
2023-03-17T11:02:23.291Z,13.10
2023-03-17T11:04:55.119Z,12.91
2023-03-17T11:07:40.515Z,12.57
2023-03-17T11:10:19.499Z,12.26
2023-03-17T11:12:54.398Z,12.08
2023-03-17T11:15:22.737Z,12.00
2023-03-17T11:17:59.516Z,12.02
2023-03-17T11:20:47.697Z,11.94
2023-03-17T11:23:38.641Z,11.76
2023-03-17T11:26:18.949Z,11.52
2023-03-17T11:29:32.603Z,11.42
2023-03-17T11:32:18.115Z,11.34
2023-03-17T11:35:17.493Z,11.22
2023-03-17T11:37:48.164Z,11.12
2023-03-17T11:40:29.305Z,11.09
2023-03-17T11:43:14.546Z,11.00
2023-03-17T12:02:39.021Z,11.73
2023-03-17T12:05:29.918Z,11.78
2023-03-17T12:08:20.824Z,11.74
2023-03-17T12:10:54.637Z,11.62
2023-03-17T12:13:46.624Z,11.47
2023-03-17T12:16:41.417Z,11.23
2023-03-17T12:19:33.709Z,11.09
2023-03-17T12:22:07.721Z,10.91
2023-03-17T12:24:41.679Z,10.80
2023-03-17T12:27:13.354Z,10.71
2023-03-17T12:29:52.573Z,10.68
2023-03-17T12:32:26.381Z,10.63
2023-03-17T12:35:02.394Z,10.54
2023-03-17T12:37:30.216Z,10.44
2023-03-17T12:40:06.863Z,10.31
2023-03-17T12:42:52.311Z,10.16
2023-03-17T12:45:26.397Z,10.03
2023-03-17T12:48:25.006Z,9.94
2023-03-17T12:51:06.126Z,9.83
2023-03-17T12:53:37.865Z,9.77
2023-03-17T12:56:17.014Z,9.71
2023-03-17T12:58:48.535Z,9.64
2023-03-17T13:01:34.227Z,9.58
2023-03-17T13:04:26.959Z,9.54
2023-03-17T13:06:59.777Z,9.51
2023-03-17T13:09:30.306Z,9.48
2023-03-17T13:12:01.867Z,9.44
2023-03-17T13:14:39.062Z,9.38
2023-03-17T13:17:19.761Z,9.31
2023-03-17T13:19:55.384Z,9.24
2023-03-17T13:22:22.999Z,9.20
2023-03-17T13:24:53.150Z,9.20
2023-03-17T13:27:32.814Z,9.22
2023-03-17T13:30:25.868Z,9.22
2023-03-17T13:33:19.788Z,9.27
2023-03-17T13:35:54.150Z,9.32
2023-03-17T13:38:40.200Z,9.36
2023-03-17T13:41:42.964Z,9.38
2023-03-17T13:44:11.613Z,9.42
2023-03-17T13:46:40.016Z,9.43
2023-03-17T13:49:21.240Z,9.44
2023-03-17T13:52:00.372Z,9.46
2023-03-17T13:54:28.398Z,9.47
2023-03-17T13:57:00.105Z,9.48
2023-03-17T13:59:40.227Z,9.49
2023-03-17T14:02:17.676Z,9.47
2023-03-17T14:04:58.193Z,9.42
2023-03-17T14:07:31.469Z,9.35
2023-03-17T14:10:02.757Z,9.29
2023-03-17T14:12:43.138Z,9.24
2023-03-17T14:15:33.218Z,9.21
2023-03-17T14:18:11.058Z,9.21
2023-03-17T14:20:38.851Z,9.20
2023-03-17T14:23:06.625Z,9.16
2023-03-17T14:25:37.743Z,9.12
2023-03-17T14:28:14.030Z,9.07
2023-03-17T14:30:51.906Z,9.02
2023-03-17T14:33:27.757Z,8.98
2023-03-17T14:36:01.441Z,8.95
2023-03-17T14:38:32.801Z,8.94
2023-03-17T14:41:07.716Z,8.94
2023-03-17T14:43:36.572Z,8.91
2023-03-17T14:46:18.592Z,8.89
2023-03-17T14:48:49.642Z,8.89
2023-03-17T14:51:23.000Z,8.93
2023-03-17T14:53:52.966Z,9.03
2023-03-17T14:56:27.058Z,9.18
2023-03-17T14:58:54.772Z,9.33
2023-03-17T15:01:38.570Z,9.43
2023-03-17T15:04:13.197Z,9.50
2023-03-17T15:06:54.790Z,9.53
2023-03-17T15:09:31.570Z,9.50
2023-03-17T15:12:21.976Z,9.43
2023-03-17T15:14:53.782Z,9.34
2023-03-17T15:17:36.628Z,9.26
2023-03-17T15:20:16.600Z,9.16
2023-03-17T15:22:49.418Z,9.08
2023-03-17T15:25:23.505Z,9.00
2023-03-17T15:27:51.946Z,8.93
2023-03-17T15:30:21.077Z,8.86
2023-03-17T15:33:01.826Z,8.79
2023-03-17T15:35:29.693Z,8.74
2023-03-17T15:37:57.908Z,8.68
2023-03-17T15:40:25.815Z,8.64
2023-03-17T15:42:53.621Z,8.60
2023-03-17T15:45:21.383Z,8.55
2023-03-17T15:47:49.375Z,8.50
2023-03-17T15:50:24.091Z,8.45
2023-03-17T15:53:01.310Z,8.41
2023-03-17T15:55:31.110Z,8.36
2023-03-17T15:57:59.338Z,8.31
2023-03-17T16:00:30.092Z,8.25
2023-03-17T16:03:01.407Z,8.18
2023-03-17T16:05:32.532Z,8.12
2023-03-17T16:08:00.744Z,8.07
2023-03-17T16:10:31.900Z,8.01
2023-03-17T16:12:59.910Z,7.95
2023-03-17T16:15:31.474Z,7.88
2023-03-17T16:18:02.515Z,7.81
2023-03-17T16:20:40.114Z,7.75
2023-03-17T16:23:14.874Z,7.67
2023-03-17T16:25:43.679Z,7.60
2023-03-17T16:28:22.505Z,7.53
2023-03-17T16:30:52.187Z,7.45
2023-03-17T16:33:53.501Z,7.38
2023-03-17T16:36:23.320Z,7.30
2023-03-17T16:38:52.143Z,7.24
2023-03-17T16:41:28.179Z,7.18
2023-03-17T16:44:01.555Z,7.10
2023-03-17T16:46:35.206Z,7.04
2023-03-17T16:49:04.773Z,6.97
2023-03-17T16:51:32.642Z,6.90
2023-03-17T16:54:00.562Z,6.83
2023-03-17T16:56:28.777Z,6.77
2023-03-17T16:58:56.647Z,6.71
2023-03-17T17:01:27.067Z,6.64
2023-03-17T17:03:55.433Z,6.57
2023-03-17T17:06:24.150Z,6.50
2023-03-17T17:08:52.350Z,6.42
2023-03-17T17:11:20.834Z,6.35
2023-03-17T17:13:49.967Z,6.28
2023-03-17T17:16:23.454Z,6.19
2023-03-17T17:18:51.453Z,6.11
2023-03-17T17:21:19.293Z,6.05
2023-03-17T17:23:47.464Z,5.99
2023-03-17T17:26:15.414Z,5.93
2023-03-17T17:28:43.280Z,5.87
2023-03-17T17:31:11.364Z,5.81
2023-03-17T17:33:40.018Z,5.76
2023-03-17T17:36:13.773Z,5.72
2023-03-17T17:38:42.343Z,5.68
2023-03-17T17:41:11.997Z,5.65
2023-03-17T17:43:40.099Z,5.61
2023-03-17T17:46:15.661Z,5.59
2023-03-17T17:48:43.665Z,5.56
2023-03-17T17:51:11.604Z,5.51
2023-03-17T17:53:40.385Z,5.48
2023-03-17T17:56:11.900Z,5.46
2023-03-17T17:58:39.869Z,5.43
2023-03-17T18:01:07.647Z,5.41
2023-03-17T18:03:35.944Z,5.39
2023-03-17T18:06:05.613Z,5.37
2023-03-17T18:08:33.441Z,5.35
2023-03-17T18:11:01.346Z,5.31
2023-03-17T18:13:29.146Z,5.28
2023-03-17T18:15:57.121Z,5.25
2023-03-17T18:18:25.011Z,5.21
2023-03-17T18:20:54.375Z,5.20
2023-03-17T18:23:23.092Z,5.17
2023-03-17T18:25:52.192Z,5.16
2023-03-17T18:28:19.997Z,5.14
2023-03-17T18:30:48.059Z,5.13
2023-03-17T18:33:18.509Z,5.10
2023-03-17T18:35:48.955Z,5.07
2023-03-17T18:38:17.064Z,5.05
2023-03-17T18:40:45.091Z,5.01
2023-03-17T18:43:13.367Z,4.98
2023-03-17T18:45:41.225Z,4.95
2023-03-17T18:48:09.045Z,4.92
2023-03-17T18:50:37.529Z,4.89
2023-03-17T18:53:05.624Z,4.87
2023-03-17T18:55:33.396Z,4.85
2023-03-17T18:58:01.429Z,4.83
2023-03-17T19:00:29.790Z,4.82
2023-03-17T19:02:57.844Z,4.80
2023-03-17T19:05:26.053Z,4.80
2023-03-17T19:07:54.088Z,4.81
2023-03-17T19:10:21.991Z,4.80
2023-03-17T19:12:50.838Z,4.80
2023-03-17T19:15:19.638Z,4.80
2023-03-17T19:17:47.988Z,4.79
2023-03-17T19:20:15.930Z,4.77
2023-03-17T19:22:43.750Z,4.77
2023-03-17T19:25:11.989Z,4.76
2023-03-17T19:27:40.158Z,4.75
2023-03-17T19:30:08.987Z,4.73
2023-03-17T19:32:36.864Z,4.72
2023-03-17T19:35:05.840Z,4.69
2023-03-17T19:37:34.072Z,4.66
2023-03-17T19:40:02.133Z,4.65
2023-03-17T19:42:29.858Z,4.64
2023-03-17T19:44:57.816Z,4.63
2023-03-17T19:47:25.794Z,4.62
2023-03-17T19:49:53.962Z,4.62
2023-03-17T19:52:22.355Z,4.62
2023-03-17T19:54:50.137Z,4.62
2023-03-17T19:57:20.748Z,4.61
2023-03-17T19:59:48.559Z,4.60
2023-03-17T20:02:16.993Z,4.60
2023-03-17T20:04:45.146Z,4.59
2023-03-17T20:07:13.070Z,4.58
2023-03-17T20:09:42.252Z,4.58
2023-03-17T20:17:27.965Z,4.57
2023-03-17T20:19:55.752Z,4.58
2023-03-17T20:22:23.451Z,4.59
2023-03-17T20:24:51.648Z,4.59
2023-03-17T20:27:19.784Z,4.58
2023-03-17T20:29:48.538Z,4.57
2023-03-17T20:32:17.255Z,4.55
2023-03-17T20:34:45.353Z,4.54
2023-03-17T20:37:14.278Z,4.53
2023-03-17T20:39:42.436Z,4.51
2023-03-17T20:42:14.472Z,4.47
2023-03-17T20:44:42.951Z,4.44
2023-03-17T20:47:11.404Z,4.42
2023-03-17T20:49:39.348Z,4.40
2023-03-17T20:52:08.651Z,4.37
2023-03-17T20:54:36.415Z,4.34
2023-03-17T20:57:04.873Z,4.32
2023-03-17T20:59:34.425Z,4.29
2023-03-17T21:02:02.504Z,4.27
2023-03-17T21:04:30.467Z,4.23
2023-03-17T21:06:58.284Z,4.20
2023-03-17T21:09:26.597Z,4.18
2023-03-17T21:11:54.312Z,4.15
2023-03-17T21:14:22.071Z,4.13
2023-03-17T21:16:50.550Z,4.10
2023-03-17T21:19:19.694Z,4.07
2023-03-17T21:21:47.533Z,4.04
2023-03-17T21:24:25.825Z,4.02
2023-03-17T21:26:53.708Z,4.00
2023-03-17T21:29:22.061Z,3.97
2023-03-17T21:31:50.132Z,3.96
2023-03-17T21:34:17.979Z,3.93
2023-03-17T21:36:46.049Z,3.93
2023-03-17T21:39:14.120Z,3.94
2023-03-17T21:41:43.546Z,3.95
2023-03-17T21:44:13.387Z,3.93
2023-03-17T21:46:42.176Z,3.92
2023-03-17T21:49:10.029Z,3.90
2023-03-17T21:51:37.798Z,3.89
2023-03-17T21:54:05.648Z,3.89
2023-03-17T21:56:33.588Z,3.88
2023-03-17T21:59:01.346Z,3.87
2023-03-17T22:01:29.370Z,3.87
2023-03-17T22:03:57.754Z,3.85
2023-03-17T22:06:27.434Z,3.83
2023-03-17T22:08:55.855Z,3.82
2023-03-17T22:11:24.038Z,3.80
2023-03-17T22:13:52.337Z,3.78
2023-03-17T22:16:20.429Z,3.75
2023-03-17T22:18:48.791Z,3.72
2023-03-17T22:21:16.519Z,3.69
2023-03-17T22:23:44.557Z,3.67
2023-03-17T22:26:22.865Z,3.65
2023-03-17T22:28:50.684Z,3.64
2023-03-17T22:31:27.258Z,3.62
2023-03-17T22:33:57.673Z,3.61
2023-03-17T22:36:26.483Z,3.59
2023-03-17T22:38:54.757Z,3.58
2023-03-17T22:41:25.464Z,3.58
2023-03-17T22:43:53.769Z,3.57
2023-03-17T22:46:22.167Z,3.54
2023-03-17T22:48:51.832Z,3.53
2023-03-17T22:51:23.551Z,3.52
2023-03-17T22:53:51.787Z,3.49
2023-03-17T22:56:19.765Z,3.47
2023-03-17T22:58:48.189Z,3.45
2023-03-17T23:01:17.544Z,3.42
2023-03-17T23:03:46.324Z,3.39
2023-03-17T23:06:14.949Z,3.37
2023-03-17T23:08:44.068Z,3.35
2023-03-17T23:11:18.344Z,3.35
2023-03-17T23:13:47.546Z,3.34
2023-03-17T23:16:16.245Z,3.33
2023-03-17T23:18:46.822Z,3.31
2023-03-17T23:21:22.333Z,3.29
2023-03-17T23:23:50.534Z,3.27
2023-03-17T23:26:18.528Z,3.25
2023-03-17T23:28:46.496Z,3.24
2023-03-17T23:31:16.754Z,3.23
2023-03-17T23:33:46.593Z,3.23
2023-03-17T23:36:16.048Z,3.21
2023-03-17T23:38:44.626Z,3.20
2023-03-17T23:41:14.433Z,3.19
2023-03-17T23:43:42.566Z,3.18
2023-03-17T23:46:11.409Z,3.17
2023-03-17T23:48:42.512Z,3.15
2023-03-17T23:51:12.505Z,3.13
2023-03-17T23:53:42.005Z,3.11
2023-03-17T23:56:11.401Z,3.11
2023-03-17T23:58:42.612Z,3.10
